Time;durP1;ratioP1;P1;durP2;ratioP2;P2;SDS_P1;SDS_P2;PMS_P1;PMS_P2;Temp;Humidity;BMP_temperature;BMP_pressure;BME280_temperature;BME280_humidity;BME280_pressure;Samples;Min_cycle;Max_cycle;Signal;HPM_P1;HPM_P2
2022/03/21 00:01:08;;;;;;;31.27;14.35;;;3.70;94.80;;;2.07;55.04;103579.41;4932944;28;20027;-72
2022/03/21 00:03:35;;;;;;;37.78;14.23;;;3.70;94.70;;;2.00;54.84;103580.03;4948270;28;20509;-72
2022/03/21 00:06:02;;;;;;;29.95;14.32;;;3.60;94.70;;;1.98;54.75;103584.28;4927692;28;20039;-72
2022/03/21 00:08:29;;;;;;;38.08;14.10;;;3.60;94.80;;;1.98;54.94;103582.56;4948822;28;20027;-73
2022/03/21 00:10:57;;;;;;;36.85;14.23;;;3.60;94.80;;;1.94;55.44;103578.09;4949948;28;20030;-71
2022/03/21 00:13:24;;;;;;;34.08;13.50;;;3.60;94.80;;;1.93;55.14;103583.25;4948160;28;20022;-72
2022/03/21 00:15:52;;;;;;;28.15;14.48;;;3.60;95.00;;;1.93;55.11;103583.25;4950708;28;20101;-71
2022/03/21 00:18:19;;;;;;;37.30;13.75;;;3.50;95.10;;;1.94;55.13;103574.59;4949928;28;20039;-72
2022/03/21 00:20:48;;;;;;;36.42;14.43;;;3.50;95.10;;;1.93;54.94;103572.84;4948466;28;20450;-72
2022/03/21 00:23:16;;;;;;;32.17;15.05;;;3.50;95.20;;;1.85;55.42;103569.97;4949386;28;20046;-72
2022/03/21 00:25:42;;;;;;;31.20;14.23;;;3.50;95.30;;;1.87;55.59;103570.03;4933143;28;20027;-71
2022/03/21 00:28:10;;;;;;;31.88;14.55;;;3.50;95.30;;;1.82;55.74;103568.16;4949896;28;20065;-72
2022/03/21 00:30:40;;;;;;;31.98;14.23;;;3.40;95.40;;;1.78;56.22;103561.09;4949315;28;20034;-72
2022/03/21 00:33:07;;;;;;;27.25;14.60;;;3.40;95.50;;;1.76;55.75;103562.75;4948607;28;20469;-72
2022/03/21 00:35:34;;;;;;;34.33;14.88;;;3.40;95.50;;;1.76;56.03;103573.13;4950278;28;20113;-72
2022/03/21 00:38:00;;;;;;;41.38;14.80;;;3.40;95.50;;;1.69;55.96;103560.78;4950403;28;20027;-72
2022/03/21 00:40:26;;;;;;;30.52;13.90;;;3.30;95.40;;;1.66;55.97;103562.38;4925257;28;20023;-71
2022/03/21 00:42:52;;;;;;;33.90;14.40;;;3.30;95.50;;;1.66;55.89;103563.25;4951776;28;20093;-71
2022/03/21 00:45:24;;;;;;;35.60;13.15;;;3.30;95.60;;;1.61;55.94;103559.59;4951250;28;20043;-72
2022/03/21 00:47:54;;;;;;;34.28;14.32;;;3.30;95.70;;;1.60;56.41;103565.66;4948295;28;21371;-72
2022/03/21 00:50:24;;;;;;;38.78;14.50;;;3.20;95.80;;;1.57;56.56;103563.78;4947975;28;20105;-72
2022/03/21 00:52:56;;;;;;;29.80;13.32;;;3.20;95.70;;;1.50;56.36;103559.22;4948950;28;20031;-72
2022/03/21 00:55:31;;;;;;;35.67;14.07;;;3.20;95.80;;;1.54;56.60;103557.63;4950372;28;20132;-72
2022/03/21 00:57:58;;;;;;;34.63;15.88;;;3.20;96.00;;;1.55;56.64;103556.78;4950986;28;20022;-71
2022/03/21 01:00:31;;;;;;;31.08;14.23;;;3.20;95.90;;;1.53;56.38;103550.66;4939944;28;20041;-71
2022/03/21 01:03:00;;;;;;;31.45;11.20;;;3.20;96.00;;;1.52;56.55;103549.78;4948937;28;20571;-72
2022/03/21 01:05:26;;;;;;;27.75;12.80;;;3.10;96.30;;;1.50;57.08;103546.22;4952937;28;20039;-72
2022/03/21 01:07:54;;;;;;;27.50;12.80;;;3.20;96.40;;;1.50;57.04;103547.94;4952340;28;20101;-73
2022/03/21 01:10:22;;;;;;;29.23;13.70;;;3.10;96.60;;;1.39;57.57;103550.16;4953267;28;20031;-73
2022/03/21 01:12:50;;;;;;;33.33;14.35;;;3.10;96.70;;;1.38;57.55;103543.19;4935742;28;20027;-73
2022/03/21 01:15:20;;;;;;;26.83;11.05;;;3.00;96.70;;;1.29;57.60;103541.13;4952436;28;20063;-73
2022/03/21 01:17:48;;;;;;;36.10;15.10;;;3.00;96.80;;;1.26;58.19;103537.56;4944261;28;20197;-73
2022/03/21 01:20:17;;;;;;;33.47;14.93;;;2.90;96.80;;;1.26;58.26;103542.75;4952421;28;20027;-73
2022/03/21 01:22:45;;;;;;;34.10;14.13;;;2.90;96.80;;;1.20;57.83;103528.69;4952077;28;20781;-73
2022/03/21 01:25:12;;;;;;;33.60;11.80;;;2.80;96.90;;;1.11;58.32;103540.47;4944323;28;20030;-72
2022/03/21 01:27:40;;;;;;;31.80;12.07;;;2.80;97.00;;;1.06;58.54;103537.69;4960450;28;20119;-72
2022/03/21 01:30:10;;;;;;;26.88;12.70;;;2.70;97.00;;;1.01;58.57;103534.03;4951050;28;20031;-73
2022/03/21 01:32:38;;;;;;;41.25;14.35;;;2.70;97.10;;;0.97;58.51;103532.13;4936919;28;20019;-72
2022/03/21 01:35:05;;;;;;;27.55;13.57;;;2.70;97.00;;;0.99;58.56;103533.06;4952406;28;20224;-73
2022/03/21 01:37:31;;;;;;;32.15;14.50;;;2.70;97.20;;;1.00;58.67;103529.69;4951389;28;20058;-73
2022/03/21 01:39:58;;;;;;;31.95;14.50;;;2.60;97.10;;;0.98;58.33;103527.00;4952990;28;20027;-72
2022/03/21 01:42:24;;;;;;;30.02;14.68;;;2.60;97.30;;;0.85;58.66;103529.97;4951942;28;20030;-72
2022/03/21 01:44:52;;;;;;;28.40;12.80;;;2.50;97.40;;;0.80;58.79;103537.59;4953161;28;20035;-72
2022/03/21 01:47:19;;;;;;;33.67;13.98;;;2.50;97.60;;;0.79;58.84;103528.00;4952767;28;20107;-72
2022/03/21 01:49:45;;;;;;;33.60;14.02;;;2.50;97.60;;;0.73;59.11;103532.97;4953703;28;20038;-73
2022/03/21 01:52:13;;;;;;;40.08;14.25;;;2.40;97.80;;;0.70;59.45;103524.19;4935074;28;20237;-72
2022/03/21 01:57:26;;;;;;;30.27;13.75;;;2.30;97.80;;;0.59;59.47;103532.44;4952426;28;20093;-72
2022/03/21 01:59:52;;;;;;;29.75;12.18;;;2.20;97.90;;;0.48;59.46;103535.44;4954167;28;20042;-72
2022/03/21 02:02:19;;;;;;;32.72;14.63;;;2.20;97.80;;;0.54;59.39;103527.88;4967299;28;20603;-72
2022/03/21 02:04:45;;;;;;;39.35;13.45;;;2.20;97.80;;;0.48;59.56;103528.53;4951694;28;20038;-72
2022/03/21 02:07:11;;;;;;;32.78;14.40;;;2.20;97.60;;;0.44;59.22;103521.44;4942386;28;20455;-73
2022/03/21 02:09:37;;;;;;;30.50;13.13;;;2.10;97.70;;;0.38;59.24;103522.06;4952861;28;20039;-72
2022/03/21 02:12:04;;;;;;;31.48;14.65;;;2.10;97.60;;;0.42;59.35;103524.81;4953631;28;20050;-72
2022/03/21 02:14:30;;;;;;;32.40;14.52;;;2.10;97.80;;;0.36;59.23;103522.84;4948830;28;20046;-72
2022/03/21 02:16:56;;;;;;;31.77;14.73;;;2.10;98.00;;;0.28;59.80;103519.03;4952541;28;20047;-72
2022/03/21 02:19:30;;;;;;;31.77;13.90;;;2.00;97.80;;;0.22;59.17;103519.69;4933882;28;20167;-72
2022/03/21 02:22:31;;;;;;;30.48;13.45;;;1.90;98.10;;;0.15;59.41;103515.97;4950534;28;20450;-72
2022/03/21 02:25:03;;;;;;;34.13;14.15;;;1.80;98.00;;;0.09;59.52;103518.31;4950773;28;20033;-73
2022/03/21 02:27:32;;;;;;;31.80;14.07;;;1.80;98.00;;;0.07;59.81;103514.78;4953868;28;20042;-73
2022/03/21 02:30:00;;;;;;;31.42;12.43;;;1.80;98.00;;;0.05;59.85;103518.13;4949662;28;20035;-73
2022/03/21 02:32:28;;;;;;;30.73;12.95;;;1.80;98.00;;;0.06;59.49;103512.09;4951261;28;20094;-73
2022/03/21 02:34:56;;;;;;;35.50;14.43;;;1.80;98.00;;;0.08;59.69;103503.56;4952585;28;20069;-73
2022/03/21 02:37:25;;;;;;;34.53;14.88;;;1.80;98.10;;;0.09;59.87;103500.16;4932971;28;20035;-73
2022/03/21 02:39:52;;;;;;;44.47;14.40;;;1.80;98.10;;;0.05;59.68;103497.41;4943711;28;20026;-72
2022/03/21 02:42:18;;;;;;;31.20;13.70;;;1.70;98.20;;;-0.01;60.01;103495.44;4950869;28;20027;-73
2022/03/21 02:44:44;;;;;;;33.33;14.63;;;1.70;98.20;;;0.03;59.89;103501.63;4950378;28;20527;-73
2022/03/21 02:47:10;;;;;;;28.95;13.77;;;1.70;98.50;;;-0.11;60.12;103483.81;4951517;28;20051;-73
2022/03/21 02:49:37;;;;;;;35.90;14.40;;;1.60;98.70;;;-0.16;60.65;103495.66;4952688;28;20098;-72
2022/03/21 02:52:06;;;;;;;31.77;13.85;;;1.60;98.70;;;-0.13;60.77;103487.13;4952613;28;20039;-72
2022/03/21 02:54:33;;;;;;;28.63;13.20;;;1.60;98.70;;;-0.21;60.47;103492.88;4950146;28;20034;-73
2022/03/21 02:57:01;;;;;;;39.03;14.98;;;1.60;99.00;;;-0.23;61.27;103484.16;4950559;28;20030;-73
2022/03/21 02:59:29;;;;;;;35.90;14.13;;;1.50;99.20;;;-0.30;61.06;103479.56;4935563;28;20034;-72
2022/03/21 03:01:55;;;;;;;34.40;14.73;;;1.40;99.50;;;-0.43;62.00;103482.44;4949102;28;20065;-72
2022/03/21 03:04:22;;;;;;;35.10;14.90;;;1.30;99.50;;;-0.48;62.18;103481.34;4951017;28;20038;-73
2022/03/21 03:06:48;;;;;;;32.15;15.35;;;1.20;99.90;;;-0.59;63.07;103474.81;4950654;28;20039;-72
2022/03/21 03:09:15;;;;;;;30.83;14.35;;;1.10;99.90;;;-0.72;63.02;103471.69;4950800;28;20399;-72
2022/03/21 03:11:41;;;;;;;32.25;13.88;;;1.00;99.90;;;-0.80;63.69;103473.06;4950351;28;20041;-74
2022/03/21 03:14:07;;;;;;;32.97;14.85;;;1.00;99.90;;;-0.86;64.41;103472.81;4951217;28;20515;-73
2022/03/21 03:16:34;;;;;;;39.47;16.23;;;0.90;99.90;;;-0.94;64.64;103469.84;4939877;28;20058;-73
2022/03/21 03:19:01;;;;;;;32.85;13.80;;;0.90;99.90;;;-0.94;64.12;103475.03;4927597;28;20029;-72
2022/03/21 03:21:33;;;;;;;36.53;14.75;;;0.90;99.90;;;-0.81;63.72;103471.28;4951036;28;20023;-72
2022/03/21 03:24:00;;;;;;;33.88;15.20;;;0.90;99.90;;;-0.78;63.43;103471.41;4932262;28;20058;-72
2022/03/21 03:26:26;;;;;;;32.13;14.00;;;0.90;99.90;;;-0.77;63.33;103467.16;4935095;28;20026;-72
2022/03/21 03:28:52;;;;;;;36.47;16.42;;;1.00;99.90;;;-0.71;62.65;103464.84;4950498;28;20029;-73
2022/03/21 03:31:19;;;;;;;33.78;13.13;;;0.90;99.90;;;-0.81;63.18;103466.13;4950141;28;20035;-73
2022/03/21 03:33:47;;;;;;;31.83;15.27;;;0.90;99.90;;;-0.78;62.95;103468.81;4948861;28;20038;-73
2022/03/21 03:36:15;;;;;;;42.80;16.20;;;1.00;99.90;;;-0.73;62.36;103467.34;4934586;28;20027;-72
2022/03/21 03:38:46;;;;;;;29.02;13.15;;;1.00;99.90;;;-0.75;62.65;103462.94;4948119;28;20034;-73
2022/03/21 03:41:13;;;;;;;33.85;14.65;;;1.00;99.90;;;-0.69;62.55;103456.31;4949303;28;20226;-73
2022/03/21 03:43:39;;;;;;;32.58;13.88;;;1.00;99.90;;;-0.67;62.41;103464.13;4950021;28;20475;-72
2022/03/21 03:46:06;;;;;;;36.70;15.23;;;1.00;99.90;;;-0.61;62.01;103456.63;4949863;28;20114;-73
2022/03/21 03:48:32;;;;;;;35.17;15.40;;;1.10;99.90;;;-0.64;62.29;103454.81;4949419;28;20439;-72
2022/03/21 03:50:58;;;;;;;38.35;14.57;;;1.10;99.90;;;-0.67;62.62;103456.38;4935206;28;20023;-73
2022/03/21 03:53:24;;;;;;;37.85;16.00;;;1.10;99.90;;;-0.62;62.26;103458.34;4949163;28;20023;-73
2022/03/21 03:55:50;;;;;;;31.35;15.45;;;1.10;99.90;;;-0.59;62.16;103467.06;4942802;28;20042;-73
2022/03/21 03:58:16;;;;;;;38.45;15.65;;;1.10;99.90;;;-0.59;62.32;103455.00;4950823;28;20031;-72
2022/03/21 04:00:44;;;;;;;41.58;15.20;;;1.10;99.90;;;-0.62;62.19;103455.75;4934194;28;20066;-72
2022/03/21 04:05:55;;;;;;;42.10;15.13;;;1.00;99.90;;;-0.71;62.34;103455.38;4948496;28;20431;-72
2022/03/21 04:08:21;;;;;;;33.33;14.63;;;1.00;99.90;;;-0.72;62.58;103456.16;4950638;28;20034;-73
2022/03/21 04:10:47;;;;;;;31.42;12.35;;;0.90;99.90;;;-0.82;63.26;103461.78;4948448;28;20031;-72
2022/03/21 04:13:13;;;;;;;37.45;15.73;;;0.90;99.90;;;-0.90;63.97;103455.38;4948843;28;20054;-72
2022/03/21 04:15:38;;;;;;;39.10;15.88;;;0.80;99.90;;;-0.92;63.82;103451.84;4950693;28;20042;-73
2022/03/21 04:18:05;;;;;;;37.55;15.43;;;0.80;99.90;;;-1.04;64.04;103453.06;4950398;28;20200;-72
2022/03/21 04:20:32;;;;;;;31.67;14.80;;;0.70;99.90;;;-1.08;64.85;103453.72;4939772;28;20369;-71
2022/03/21 04:23:00;;;;;;;40.13;16.48;;;0.70;99.90;;;-1.11;64.97;103451.00;4949536;28;20031;-72
2022/03/21 04:25:27;;;;;;;40.88;15.98;;;0.60;99.90;;;-1.19;65.02;103452.34;4950278;28;20081;-72
2022/03/21 04:27:54;;;;;;;41.97;16.80;;;0.60;99.90;;;-1.19;64.81;103448.88;4951776;28;20487;-72
2022/03/21 04:30:21;;;;;;;38.45;16.02;;;0.50;99.90;;;-1.24;65.21;103441.78;4940571;28;20467;-72
2022/03/21 04:32:48;;;;;;;35.25;16.65;;;0.40;99.90;;;-1.33;65.29;103443.09;4950357;28;20031;-72
2022/03/21 04:35:14;;;;;;;38.35;16.75;;;0.40;99.90;;;-1.42;65.73;103447.84;4951058;28;20047;-72
2022/03/21 04:37:41;;;;;;;37.13;15.63;;;0.30;99.90;;;-1.43;66.17;103451.22;4943030;28;20041;-72
2022/03/21 04:40:09;;;;;;;43.90;16.35;;;0.30;99.90;;;-1.43;65.59;103443.47;4946381;28;20038;-72
2022/03/21 04:42:38;;;;;;;40.13;17.25;;;0.30;99.90;;;-1.41;65.64;103440.13;4954734;28;20495;-72
2022/03/21 04:45:05;;;;;;;47.67;16.42;;;0.30;99.90;;;-1.35;65.65;103450.75;4952548;28;20039;-72
2022/03/21 04:47:33;;;;;;;43.70;16.27;;;0.40;99.90;;;-1.31;65.48;103436.28;4944637;28;20031;-71
2022/03/21 04:49:59;;;;;;;38.72;17.02;;;0.40;99.90;;;-1.28;65.86;103439.88;4952079;28;20031;-71
2022/03/21 04:52:25;;;;;;;38.10;16.13;;;0.40;99.90;;;-1.26;65.63;103430.50;4952689;28;20034;-72
2022/03/21 04:54:52;;;;;;;42.78;19.10;;;0.50;99.90;;;-1.17;65.24;103435.19;4954759;28;20758;-71
2022/03/21 04:57:22;;;;;;;41.50;17.55;;;0.60;99.90;;;-1.09;65.36;103439.00;4954191;28;20035;-71
2022/03/21 04:59:49;;;;;;;43.67;20.90;;;0.60;99.90;;;-0.99;65.53;103444.59;4953551;28;20027;-71
2022/03/21 05:02:15;;;;;;;42.83;17.85;;;0.70;99.90;;;-0.91;65.17;103441.53;4950951;28;20026;-72
2022/03/21 05:04:41;;;;;;;39.75;17.95;;;0.80;99.90;;;-0.82;65.23;103438.50;4954862;28;20023;-71
2022/03/21 05:07:19;;;;;;;35.40;14.65;;;0.80;99.90;;;-0.77;64.84;103446.44;4942094;28;20537;-71
2022/03/21 05:09:45;;;;;;;22.95;8.77;;;0.90;99.90;;;-0.75;64.48;103450.88;4937002;28;20023;-71
2022/03/21 05:12:12;;;;;;;41.22;16.92;;;1.00;99.90;;;-0.62;63.98;103449.69;4943878;28;20434;-71
2022/03/21 05:14:39;;;;;;;31.70;14.48;;;1.00;99.90;;;-0.59;63.92;103456.72;4953143;28;20113;-71
2022/03/21 05:17:05;;;;;;;44.55;17.38;;;1.00;99.90;;;-0.58;64.33;103464.56;4951188;28;20034;-71
2022/03/21 05:19:36;;;;;;;40.15;17.55;;;1.00;99.90;;;-0.52;63.67;103466.50;4955995;28;20606;-72
2022/03/21 05:22:06;;;;;;;40.20;16.17;;;1.10;99.90;;;-0.40;63.46;103469.63;4952886;28;20110;-71
2022/03/21 05:35:52;;;;;;;48.72;18.27;;;1.50;99.90;;;0.06;62.22;103478.44;4951001;28;20392;-71
2022/03/21 05:35:55;;;;;;;40.70;16.52;;;1.60;99.90;;;0.16;61.76;103484.03;4953995;28;20043;-71
2022/03/21 05:38:30;;;;;;;28.35;12.77;;;1.70;99.90;;;0.26;61.38;103479.22;4949733;28;20031;-71
2022/03/21 05:41:03;;;;;;;45.58;16.00;;;1.80;99.90;;;0.46;61.22;103478.31;4945805;28;20030;-71
2022/03/21 05:43:33;;;;;;;42.42;16.65;;;1.90;99.90;;;0.56;60.74;103483.06;4946525;28;20027;-71
2022/03/21 05:46:01;;;;;;;42.10;17.38;;;1.90;99.90;;;0.49;60.20;103493.09;4955171;28;22754;-71
2022/03/21 05:51:13;;;;;;;45.75;17.38;;;2.00;99.90;;;0.70;59.97;103491.34;4944580;28;20081;-71
2022/03/21 05:53:39;;;;;;;40.13;17.13;;;2.10;99.90;;;0.94;59.59;103491.41;4934147;28;20023;-72
2022/03/21 05:56:05;;;;;;;43.22;16.98;;;2.30;99.90;;;1.21;58.89;103495.88;4935620;28;20042;-72
2022/03/21 05:58:31;;;;;;;28.17;11.82;;;2.40;99.90;;;1.39;58.22;103499.09;4951387;28;20089;-71
2022/03/21 06:00:58;;;;;;;38.05;16.65;;;2.60;99.80;;;1.66;58.03;103502.63;4953833;28;20435;-71
2022/03/21 06:03:27;;;;;;;46.17;16.58;;;2.70;99.80;;;1.77;57.42;103506.47;4952502;28;20050;-71
2022/03/21 06:05:58;;;;;;;41.00;17.00;;;2.90;99.80;;;2.41;57.17;103511.19;4957632;28;20027;-72
2022/03/21 06:08:25;;;;;;;36.78;17.00;;;3.00;99.70;;;2.16;56.88;103513.84;4952302;28;20023;-71
2022/03/21 06:11:03;;;;;;;29.95;13.02;;;3.20;99.50;;;2.95;56.11;103517.19;4952224;28;20154;-72
2022/03/21 06:13:35;;;;;;;34.70;13.95;;;3.60;99.20;;;4.38;52.81;103510.56;4951460;28;20992;-72
2022/03/21 06:16:04;;;;;;;35.20;15.18;;;3.90;98.70;;;3.83;52.19;103512.69;4953573;28;20104;-72
2022/03/21 06:18:35;;;;;;;37.42;14.75;;;4.00;98.10;;;3.39;53.39;103521.06;4934468;28;20031;-72
2022/03/21 06:21:04;;;;;;;43.15;17.58;;;4.10;98.10;;;3.92;53.88;103522.47;4951325;28;20034;-71
2022/03/21 06:23:30;;;;;;;18.25;7.43;;;4.50;97.70;;;5.20;49.97;103524.56;4935222;28;20045;-72
2022/03/21 06:25:58;;;;;;;40.45;16.38;;;4.60;96.60;;;4.44;49.89;103535.06;4941663;28;20027;-72
2022/03/21 06:28:27;;;;;;;44.22;18.20;;;4.70;96.60;;;4.24;51.29;103537.19;4951273;28;20424;-72
2022/03/21 06:30:53;;;;;;;39.38;17.60;;;4.90;96.70;;;5.79;49.85;103539.66;4950695;28;20094;-72
2022/03/21 06:33:25;;;;;;;30.45;13.13;;;5.30;96.00;;;7.34;46.31;103546.38;4934452;28;20076;-72
2022/03/21 06:35:52;;;;;;;40.95;16.98;;;5.90;95.40;;;7.16;44.18;103547.91;4951130;28;20031;-72
2022/03/21 06:38:18;;;;;;;50.40;18.98;;;6.10;94.80;;;6.44;46.19;103559.09;4950381;28;20027;-72
2022/03/21 06:40:44;;;;;;;47.20;16.48;;;6.10;93.50;;;7.16;44.94;103558.38;4954160;28;20078;-72
2022/03/21 06:43:12;;;;;;;32.55;13.98;;;6.50;93.10;;;9.54;41.11;103562.06;4950634;28;20026;-73
2022/03/21 06:45:39;;;;;;;35.80;14.80;;;7.40;92.40;;;11.64;37.59;103578.50;4951544;28;20046;-72
2022/03/21 06:48:06;;;;;;;40.88;18.08;;;8.50;91.40;;;14.10;34.16;103605.97;4959061;28;20054;-73
2022/03/21 06:50:32;;;;;;;33.13;11.50;;;9.50;87.50;;;13.55;32.84;103625.28;4949417;28;20035;-73
2022/03/21 06:52:58;;;;;;;38.05;18.27;;;10.20;85.50;;;14.97;31.90;103632.78;4951551;28;20563;-73
2022/03/21 06:55:24;;;;;;;46.65;18.23;;;11.20;84.50;;;16.21;30.52;103636.34;4951341;28;20047;-73
2022/03/21 06:57:50;;;;;;;38.78;17.75;;;11.80;81.70;;;16.55;30.20;103655.00;4950663;28;20062;-73
2022/03/21 07:00:17;;;;;;;34.35;17.45;;;12.20;78.60;;;16.55;29.55;103668.28;4949965;28;20035;-73
2022/03/21 07:02:44;;;;;;;32.35;14.45;;;12.30;81.00;;;16.15;28.80;103682.53;4942253;28;20534;-73
2022/03/21 07:05:11;;;;;;;40.90;17.63;;;12.10;75.10;;;14.44;30.75;103692.00;4948481;28;20391;-73
2022/03/21 07:07:37;;;;;;;30.05;14.48;;;12.40;76.10;;;15.02;29.35;103700.78;4950435;28;20031;-73
2022/03/21 07:10:05;;;;;;;42.67;17.60;;;12.80;76.60;;;16.47;28.72;103693.34;4952415;28;20159;-73
2022/03/21 07:12:34;;;;;;;38.88;17.98;;;12.90;74.60;;;16.39;28.72;103701.47;4952456;28;20033;-73
2022/03/21 07:15:02;;;;;;;36.45;17.98;;;12.90;72.90;;;15.75;29.36;103707.34;4950077;28;20067;-73
2022/03/21 07:17:28;;;;;;;35.55;16.95;;;12.90;73.50;;;15.64;29.43;103714.66;4943778;28;20114;-73
2022/03/21 07:19:54;;;;;;;36.00;16.85;;;13.00;72.80;;;15.43;29.28;103713.28;4950933;28;20419;-73
2022/03/21 07:22:20;;;;;;;34.92;17.05;;;13.40;72.30;;;16.18;28.68;103727.69;4948872;28;20062;-74
2022/03/21 07:24:46;;;;;;;33.65;17.85;;;13.50;72.40;;;16.22;28.69;103720.53;4951547;28;20055;-73
2022/03/21 07:27:13;;;;;;;38.10;17.20;;;13.20;70.20;;;15.03;29.43;103740.59;4940029;28;20130;-73
2022/03/21 07:29:39;;;;;;;35.20;14.88;;;13.60;71.30;;;14.75;29.37;103729.53;4933862;28;20030;-74
2022/03/21 07:32:05;;;;;;;28.35;14.75;;;12.70;69.00;;;13.17;30.77;103732.41;4933756;28;20381;-73
2022/03/21 07:34:31;;;;;;;36.58;18.15;;;13.00;71.00;;;14.84;29.84;103734.72;4925391;28;20408;-73
2022/03/21 07:36:57;;;;;;;37.75;17.73;;;13.60;71.10;;;15.63;28.82;103734.13;4945360;28;20114;-73
2022/03/21 07:39:23;;;;;;;30.85;17.15;;;14.00;69.30;;;15.74;28.58;103744.56;4963928;28;20046;-74
2022/03/21 07:41:49;;;;;;;30.30;16.10;;;14.40;68.00;;;15.63;28.54;103746.53;4949196;28;20027;-74
2022/03/21 07:47:17;;;;;;;34.63;13.35;;;14.30;67.40;;;14.54;29.49;103754.59;4950032;28;22753;-74
2022/03/21 07:49:46;;;;;;;32.53;16.15;;;15.30;67.40;;;16.70;27.82;103757.50;4949834;28;20030;-73
2022/03/21 07:52:13;;;;;;;28.17;13.15;;;15.80;65.30;;;15.75;27.44;103771.13;4949059;28;20043;-73
2022/03/21 07:54:40;;;;;;;31.08;16.10;;;15.50;64.00;;;15.69;28.12;103759.69;4946677;28;20451;-74
2022/03/21 07:57:06;;;;;;;31.60;14.45;;;15.30;65.20;;;14.91;29.60;103757.56;4958079;28;20030;-73
2022/03/21 07:59:32;;;;;;;33.30;16.02;;;15.10;65.50;;;14.63;29.69;103758.91;4950132;28;20051;-73
2022/03/21 08:01:59;;;;;;;30.65;16.27;;;15.40;66.00;;;15.72;29.22;103759.66;4953817;28;20089;-73
2022/03/21 08:04:25;;;;;;;31.55;15.63;;;15.80;65.10;;;16.43;28.12;103761.66;4963867;28;20051;-73
2022/03/21 08:06:57;;;;;;;34.00;14.98;;;15.90;64.40;;;15.85;28.78;103768.25;4948278;28;20019;-74
2022/03/21 08:09:24;;;;;;;30.25;15.35;;;15.90;63.60;;;15.68;28.69;103776.53;4949305;28;20034;-73
2022/03/21 08:11:50;;;;;;;26.10;12.07;;;16.10;62.60;;;14.88;28.10;103786.81;4951022;28;20066;-74
2022/03/21 08:14:17;;;;;;;32.47;14.40;;;16.20;63.20;;;15.59;28.87;103780.25;4948432;28;20031;-73
2022/03/21 08:16:44;;;;;;;33.58;15.07;;;16.30;61.80;;;15.57;28.27;103784.69;4949134;28;20507;-73
2022/03/21 08:19:10;;;;;;;33.55;15.10;;;16.60;62.50;;;15.98;28.57;103781.28;4948124;28;20563;-73
2022/03/21 08:21:36;;;;;;;33.55;14.48;;;16.70;61.80;;;15.85;28.49;103785.06;4944984;28;20029;-74
2022/03/21 08:24:03;;;;;;;25.63;13.63;;;16.20;59.70;;;14.38;29.16;103788.41;4947899;28;20039;-73
2022/03/21 08:26:29;;;;;;;31.48;14.55;;;16.20;60.80;;;14.84;28.91;103784.22;4948500;28;20158;-74
2022/03/21 08:28:55;;;;;;;32.78;14.57;;;16.30;60.60;;;15.00;28.70;103788.38;4950895;28;20031;-74
2022/03/21 08:31:21;;;;;;;35.65;15.48;;;16.40;60.50;;;14.92;28.75;103791.19;4932261;28;20547;-73
2022/03/21 08:33:47;;;;;;;26.52;13.48;;;16.10;61.10;;;14.41;29.61;103783.06;4949753;28;20042;-73
2022/03/21 08:36:13;;;;;;;30.77;14.65;;;16.00;62.40;;;14.79;29.77;103789.59;4949560;28;20043;-72
2022/03/21 08:38:40;;;;;;;25.60;13.80;;;16.10;61.10;;;14.57;29.50;103784.63;4948411;28;20027;-74
2022/03/21 08:41:08;;;;;;;33.03;14.20;;;15.40;60.20;;;13.60;29.78;103786.72;4951084;28;20168;-74
2022/03/21 08:43:34;;;;;;;27.60;13.90;;;15.00;61.70;;;13.47;30.40;103775.38;4957583;28;20051;-72
2022/03/21 08:46:00;;;;;;;32.95;13.30;;;14.70;60.30;;;12.88;30.73;103781.16;4958420;28;20574;-72
2022/03/21 08:51:10;;;;;;;30.73;14.10;;;14.60;63.20;;;13.38;30.94;103779.00;4947922;28;20118;-74
2022/03/21 08:53:36;;;;;;;34.08;14.05;;;15.00;63.10;;;13.77;30.57;103768.88;5001869;23;20041;-76
2022/03/21 08:56:03;;;;;;;35.10;14.55;;;15.00;62.70;;;13.63;30.75;103771.69;5009086;28;20116;-77
2022/03/21 08:58:29;;;;;;;31.90;14.32;;;14.80;62.10;;;13.21;30.67;103757.94;5007859;28;20103;-77
2022/03/21 09:00:55;;;;;;;25.52;13.38;;;14.70;62.00;;;13.26;30.34;103766.72;5024555;28;20053;-75
2022/03/21 09:03:21;;;;;;;23.23;12.13;;;14.50;60.70;;;12.91;29.79;103772.31;5018142;28;20544;-77
2022/03/21 09:05:47;;;;;;;34.95;14.13;;;14.60;64.00;;;13.77;30.56;103768.00;4997675;28;20061;-77
2022/03/21 09:08:13;;;;;;;23.98;13.20;;;14.70;63.00;;;13.84;29.94;103767.88;4998595;28;20524;-77
2022/03/21 09:10:41;;;;;;;27.60;12.98;;;14.70;63.00;;;13.92;30.21;103763.38;4998229;28;20034;-77
2022/03/21 09:13:07;;;;;;;27.23;12.88;;;14.70;62.50;;;13.80;30.19;103767.94;4995522;28;20030;-77
2022/03/21 09:15:34;;;;;;;37.97;12.00;;;14.70;62.70;;;13.71;30.36;103755.69;4999764;28;20048;-75
2022/03/21 09:18:01;;;;;;;24.45;13.18;;;14.40;62.30;;;13.25;30.78;103764.97;4995999;28;20030;-76
2022/03/21 09:20:27;;;;;;;27.13;12.93;;;14.20;63.80;;;13.10;30.71;103754.53;4999301;28;20118;-76
2022/03/21 09:22:53;;;;;;;41.08;12.07;;;13.90;62.30;;;12.65;30.58;103752.22;4990774;28;20430;-77
2022/03/21 09:25:19;;;;;;;25.30;11.50;;;13.50;62.80;;;12.38;31.33;103755.06;4991857;28;20048;-77
2022/03/21 09:27:45;;;;;;;20.38;11.75;;;13.20;64.20;;;11.93;32.33;103750.00;4983180;28;20030;-76
2022/03/21 09:30:14;;;;;;;42.35;11.70;;;13.10;65.10;;;12.04;32.03;103742.03;5012354;28;20521;-76
2022/03/21 09:32:40;;;;;;;23.77;11.57;;;13.00;63.50;;;11.60;31.49;103754.50;4990103;28;20026;-76
2022/03/21 09:35:08;;;;;;;21.85;11.88;;;12.80;64.90;;;11.41;32.22;103751.00;5021904;28;20053;-78
2022/03/21 09:37:34;;;;;;;43.67;11.38;;;12.50;63.60;;;10.86;32.22;103743.13;5004077;28;20040;-77
2022/03/21 09:40:01;;;;;;;21.23;10.50;;;12.30;65.10;;;10.85;32.44;103750.16;5006212;28;20022;-78
2022/03/21 09:42:28;;;;;;;29.15;11.38;;;12.20;64.70;;;10.86;32.76;103735.22;5000218;28;20051;-78
2022/03/21 09:44:54;;;;;;;19.38;11.50;;;12.10;63.60;;;10.50;32.46;103736.97;4995018;28;20041;-78
2022/03/21 09:50:13;;;;;;;26.25;10.90;;;12.00;65.40;;;10.80;32.67;103736.13;5011552;28;20496;-78
2022/03/21 09:52:40;;;;;;;24.20;11.70;;;11.80;65.90;;;10.50;33.29;103723.78;4985726;28;20030;-76
2022/03/21 09:55:08;;;;;;;55.72;10.88;;;11.90;65.20;;;10.56;33.10;103718.53;4985751;28;20117;-77
2022/03/21 09:57:36;;;;;;;22.25;10.32;;;11.90;65.70;;;10.69;32.73;103722.06;4989368;28;20079;-78
2022/03/21 10:00:06;;;;;;;28.38;11.63;;;11.90;66.10;;;10.74;32.77;103727.31;4975612;28;20088;-77
2022/03/21 10:02:34;;;;;;;33.45;11.73;;;12.10;65.20;;;10.97;32.31;103717.66;4995464;28;20026;-78
2022/03/21 10:05:01;;;;;;;23.90;11.25;;;12.10;64.80;;;10.93;32.36;103720.28;4999588;28;20367;-77
2022/03/21 10:07:28;;;;;;;25.67;11.35;;;12.20;66.80;;;11.22;33.30;103715.00;5006724;28;20085;-78
2022/03/21 10:10:16;;;;;;;33.75;9.80;;;12.40;66.50;;;11.05;32.21;103720.28;4996631;28;20028;-78
2022/03/21 10:12:43;;;;;;;32.15;11.55;;;12.40;65.10;;;11.17;32.44;103714.13;4986808;28;20017;-78
2022/03/21 10:15:10;;;;;;;19.02;10.45;;;12.40;65.90;;;11.19;33.09;103720.28;5003073;28;20546;-77
2022/03/21 10:17:37;;;;;;;37.53;11.32;;;12.40;65.10;;;11.13;32.41;103723.78;4969725;28;20048;-78
2022/03/21 10:20:08;;;;;;;31.70;11.43;;;12.40;64.70;;;11.19;32.55;103718.50;4986049;28;21157;-78
2022/03/21 10:22:43;;;;;;;29.08;10.80;;;12.40;65.50;;;11.21;32.58;103711.47;4996920;28;20026;-78
2022/03/21 10:25:16;;;;;;;22.98;11.23;;;12.50;66.10;;;11.33;32.66;103709.69;5001283;28;20030;-77
2022/03/21 10:27:49;;;;;;;258.65;27.80;;;12.30;65.10;;;11.00;32.64;103711.50;4979056;28;20082;-77
2022/03/21 10:30:24;;;;;;;68.95;14.38;;;12.50;67.20;;;11.54;33.01;103704.34;4978119;28;20026;-78
2022/03/21 10:32:59;;;;;;;26.17;10.93;;;12.60;65.40;;;11.52;32.47;103705.25;4980651;28;20037;-78